Time;durP1;ratioP1;P1;durP2;ratioP2;P2;SDS_P1;SDS_P2;PMS_P1;PMS_P2;Temp;Humidity;BMP_temperature;BMP_pressure;BME280_temperature;BME280_humidity;BME280_pressure;Samples;Min_cycle;Max_cycle;Signal;HPM_P1;HPM_P2
2024/04/09 00:00:13;;;;;;;0.30;0.30;;;;;;;19.73;33.92;95707.34;29395;238;63005;-57
2024/04/09 00:00:46;;;;;;;0.30;0.30;;;;;;;19.73;33.29;95701.84;29394;243;64014;-56
2024/04/09 00:01:17;;;;;;;0.30;0.30;;;;;;;19.71;33.39;95701.44;29395;250;63010;-57
2024/04/09 00:01:48;;;;;;;0.30;0.30;;;;;;;19.70;33.81;95700.66;29395;239;63009;-57
2024/04/09 00:02:19;;;;;;;0.32;0.32;;;;;;;19.68;33.50;95697.47;29395;214;63009;-57
2024/04/09 00:02:51;;;;;;;0.40;0.40;;;;;;;19.68;33.52;95699.44;29395;225;63005;-57
2024/04/09 00:03:23;;;;;;;0.40;0.40;;;;;;;19.67;32.80;95701.41;29395;236;63005;-56
2024/04/09 00:03:55;;;;;;;0.40;0.40;;;;;;;19.66;32.38;95699.03;29395;223;63009;-57
2024/04/09 00:04:27;;;;;;;0.30;0.30;;;;;;;19.65;33.09;95700.19;29395;227;63004;-56
2024/04/09 00:04:58;;;;;;;0.30;0.30;;;;;;;19.65;33.01;95709.25;29395;291;63017;-57
2024/04/09 00:05:39;;;;;;;0.30;0.30;;;;;;;19.64;33.01;95706.88;29395;196;63007;-56
2024/04/09 00:06:19;;;;;;;0.40;0.40;;;;;;;19.64;33.03;95701.38;29394;212;64013;-56
2024/04/09 00:06:50;;;;;;;0.40;0.40;;;;;;;19.61;32.83;95708.41;29395;196;63004;-58
2024/04/09 00:07:22;;;;;;;0.30;0.30;;;;;;;19.60;33.00;95704.09;29395;361;63009;-57
2024/04/09 00:07:54;;;;;;;0.40;0.40;;;;;;;19.59;32.93;95705.25;29395;203;63005;-57
2024/04/09 00:08:28;;;;;;;0.30;0.30;;;;;;;19.59;33.21;95710.75;29395;214;63009;-56
2024/04/09 00:09:05;;;;;;;0.40;0.40;;;;;;;19.57;33.40;95706.81;29395;237;63005;-56
2024/04/09 00:09:43;;;;;;;0.30;0.30;;;;;;;19.56;33.07;95699.72;29394;235;64013;-56
2024/04/09 00:10:14;;;;;;;0.30;0.30;;;;;;;19.55;33.44;95703.63;29395;198;63005;-57
2024/04/09 00:10:45;;;;;;;0.30;0.30;;;;;;;19.56;32.02;95697.75;29395;214;63009;-56
2024/04/09 00:11:24;;;;;;;0.40;0.40;;;;;;;19.56;30.98;95692.25;29395;198;63005;-57
2024/04/09 00:11:58;;;;;;;0.30;0.30;;;;;;;19.56;32.28;95696.97;29395;233;63009;-56
2024/04/09 00:12:32;;;;;;;0.40;0.40;;;;;;;19.54;32.56;95702.84;29395;197;63004;-57
2024/04/09 00:13:04;;;;;;;0.40;0.40;;;;;;;19.55;32.56;95703.63;29395;245;63009;-57
2024/04/09 00:13:36;;;;;;;0.30;0.30;;;;;;;19.57;32.22;95702.09;29395;233;63004;-58
2024/04/09 00:14:07;;;;;;;0.40;0.40;;;;;;;19.58;31.19;95691.88;29395;226;63008;-57
2024/04/09 00:14:47;;;;;;;0.30;0.30;;;;;;;19.60;31.50;95695.03;29394;218;64008;-57
2024/04/09 00:15:19;;;;;;;0.40;0.40;;;;;;;19.60;31.63;95692.28;29395;203;63009;-57
2024/04/09 00:15:50;;;;;;;0.40;0.40;;;;;;;19.60;32.08;95690.31;29395;222;63005;-57
2024/04/09 00:16:22;;;;;;;0.30;0.30;;;;;;;19.61;31.22;95696.63;29395;249;63009;-57
2024/04/09 00:16:53;;;;;;;0.40;0.40;;;;;;;19.63;30.95;95694.28;29395;239;63005;-57
2024/04/09 00:17:34;;;;;;;0.30;0.30;;;;;;;19.64;30.40;95695.88;29395;237;63009;-56
2024/04/09 00:18:24;;;;;;;0.40;0.40;;;;;;;19.63;30.46;95692.31;29439;252;125005;-56
2024/04/09 00:18:55;;;;;;;0.40;0.40;;;;;;;19.62;31.39;95698.22;29373;233;63009;-56
2024/04/09 00:19:26;;;;;;;0.30;0.30;;;;;;;19.61;31.44;95697.41;29395;288;63004;-57
2024/04/09 00:19:58;;;;;;;0.40;0.40;;;;;;;19.60;31.67;95693.09;29394;287;64013;-58
2024/04/09 00:20:29;;;;;;;0.40;0.40;;;;;;;19.58;31.81;95698.16;29395;198;63004;-57
2024/04/09 00:21:01;;;;;;;0.40;0.40;;;;;;;19.58;31.68;95697.38;29395;225;63009;-57
2024/04/09 00:21:33;;;;;;;0.30;0.30;;;;;;;19.55;32.08;95693.44;29395;207;63004;-58
2024/04/09 00:22:04;;;;;;;0.30;0.30;;;;;;;19.55;32.17;95692.63;29394;210;64013;-58
2024/04/09 00:22:41;;;;;;;0.30;0.30;;;;;;;19.54;32.14;95696.56;29395;205;63005;-57
2024/04/09 00:23:18;;;;;;;0.32;0.32;;;;;;;19.54;31.86;95691.84;29395;235;63009;-57
2024/04/09 00:23:49;;;;;;;0.40;0.40;;;;;;;19.54;31.29;95693.81;29395;198;63005;-56
2024/04/09 00:24:21;;;;;;;0.40;0.40;;;;;;;19.54;31.45;95691.06;29395;204;63009;-56
2024/04/09 00:24:53;;;;;;;0.30;0.30;;;;;;;19.53;31.79;95689.47;29395;225;63005;-56
2024/04/09 00:25:25;;;;;;;0.40;0.40;;;;;;;19.54;31.41;95691.06;29395;196;63009;-57
2024/04/09 00:25:56;;;;;;;0.30;0.30;;;;;;;19.53;31.66;95689.47;29395;239;63004;-56
2024/04/09 00:26:30;;;;;;;0.30;0.30;;;;;;;19.52;31.17;95691.44;29395;202;63009;-58
2024/04/09 00:27:04;;;;;;;0.30;0.30;;;;;;;19.52;31.31;95693.38;29395;234;63017;-57
2024/04/09 00:27:35;;;;;;;0.30;0.30;;;;;;;19.52;31.00;95693.38;29394;229;64013;-57
2024/04/09 00:28:10;;;;;;;0.30;0.30;;;;;;;19.53;31.37;95690.25;29395;242;63004;-57
2024/04/09 00:28:41;;;;;;;0.40;0.40;;;;;;;19.53;30.52;95694.97;29395;288;63008;-56
2024/04/09 00:29:13;;;;;;;0.30;0.30;;;;;;;19.53;31.05;95693.00;29395;241;63005;-56
2024/04/09 00:29:45;;;;;;;0.30;0.30;;;;;;;19.53;31.26;95694.97;29395;223;63009;-57
2024/04/09 00:30:17;;;;;;;0.40;0.40;;;;;;;19.53;31.33;95690.25;29395;222;63005;-56
2024/04/09 00:30:50;;;;;;;0.37;0.37;;;;;;;19.54;30.90;95693.81;29395;232;63009;-56
2024/04/09 00:31:21;;;;;;;0.30;0.30;;;;;;;19.54;30.91;95696.56;29395;235;63005;-57
2024/04/09 00:31:53;;;;;;;0.30;0.30;;;;;;;19.54;31.16;95696.56;29395;224;63005;-58
2024/04/09 00:32:24;;;;;;;0.30;0.30;;;;;;;19.53;30.85;95687.50;29395;322;63005;-57
2024/04/09 00:32:55;;;;;;;0.30;0.30;;;;;;;19.53;30.49;95693.00;29394;202;64013;-57
2024/04/09 00:33:27;;;;;;;0.40;0.40;;;;;;;19.52;30.90;95699.69;29395;231;63004;-58
2024/04/09 00:33:59;;;;;;;0.40;0.40;;;;;;;19.52;31.24;95694.19;29395;202;63014;-56
2024/04/09 00:34:31;;;;;;;0.40;0.40;;;;;;;19.52;31.41;95694.19;29395;226;63004;-57
2024/04/09 00:35:10;;;;;;;0.40;0.40;;;;;;;19.52;30.70;95693.38;29395;206;63009;-56
2024/04/09 00:35:43;;;;;;;0.40;0.40;;;;;;;19.51;30.56;95695.34;29395;240;63018;-56
2024/04/09 00:36:14;;;;;;;0.40;0.40;;;;;;;19.50;30.59;95695.69;29395;234;63008;-57
2024/04/09 00:36:45;;;;;;;0.30;0.30;;;;;;;19.49;30.91;95691.38;29395;197;63005;-57
2024/04/09 00:37:16;;;;;;;0.40;0.40;;;;;;;19.48;30.79;95692.53;29395;217;63018;-57
2024/04/09 00:37:51;;;;;;;0.40;0.40;;;;;;;19.46;30.96;95686.63;29394;244;64005;-56
2024/04/09 00:38:23;;;;;;;0.40;0.40;;;;;;;19.43;31.36;95686.19;29394;229;64013;-57
2024/04/09 00:38:56;;;;;;;0.40;0.40;;;;;;;19.42;31.23;95692.09;29395;242;63014;-56
2024/04/09 00:39:29;;;;;;;0.40;0.40;;;;;;;19.40;31.32;95695.22;29395;242;63026;-57
2024/04/09 00:40:02;;;;;;;0.40;0.40;;;;;;;19.37;31.76;95698.75;29395;214;63005;-57
2024/04/09 00:40:36;;;;;;;0.37;0.37;;;;;;;19.35;31.82;95692.84;29395;210;63009;-56
2024/04/09 00:41:10;;;;;;;0.40;0.40;;;;;;;19.32;31.92;95693.59;29395;251;63004;-57
2024/04/09 00:41:41;;;;;;;0.40;0.40;;;;;;;19.30;31.96;95692.38;29395;196;63009;-57
2024/04/09 00:42:13;;;;;;;0.40;0.40;;;;;;;19.28;32.23;95695.50;29394;197;64009;-57
2024/04/09 00:42:49;;;;;;;0.40;0.40;;;;;;;19.26;32.07;95697.06;29395;202;63025;-57
2024/04/09 00:43:20;;;;;;;0.30;0.30;;;;;;;19.24;32.31;95694.69;29395;304;63004;-57
2024/04/09 00:43:52;;;;;;;0.30;0.30;;;;;;;19.23;32.64;95693.09;29394;227;64008;-57
2024/04/09 00:44:29;;;;;;;0.40;0.40;;;;;;;19.21;32.22;95695.44;29395;221;63005;-56
2024/04/09 00:45:00;;;;;;;0.32;0.32;;;;;;;19.20;32.00;95699.34;29395;220;63009;-56
2024/04/09 00:45:32;;;;;;;0.40;0.40;;;;;;;19.18;32.05;95696.19;29395;215;63005;-56
2024/04/09 00:46:05;;;;;;;0.40;0.40;;;;;;;19.17;31.68;95694.59;29395;233;63009;-56
2024/04/09 00:46:37;;;;;;;0.30;0.30;;;;;;;19.16;32.19;95695.75;29395;212;63016;-57
2024/04/09 00:47:09;;;;;;;0.30;0.30;;;;;;;19.15;32.07;95696.94;29395;213;63009;-56
2024/04/09 00:47:41;;;;;;;0.40;0.40;;;;;;;19.14;32.34;95700.84;29394;226;64009;-56
2024/04/09 00:48:15;;;;;;;0.40;0.40;;;;;;;19.13;32.41;95702.00;29395;203;63024;-57
2024/04/09 00:48:49;;;;;;;0.40;0.40;;;;;;;19.12;32.26;95703.19;29395;222;63004;-56
2024/04/09 00:49:21;;;;;;;0.40;0.40;;;;;;;19.10;32.23;95705.50;29395;239;63009;-57
2024/04/09 00:49:53;;;;;;;0.30;0.30;;;;;;;19.09;32.78;95703.94;29395;234;63004;-56
2024/04/09 00:50:24;;;;;;;0.40;0.40;;;;;;;19.07;32.75;95706.25;29395;210;63009;-57
2024/04/09 00:50:58;;;;;;;0.40;0.40;;;;;;;19.06;32.88;95699.97;29395;235;63004;-57
2024/04/09 00:51:32;;;;;;;0.40;0.40;;;;;;;19.05;32.86;95698.41;29395;261;63008;-56
2024/04/09 00:52:04;;;;;;;0.40;0.40;;;;;;;19.05;32.95;95703.13;29395;229;63005;-56
2024/04/09 00:52:37;;;;;;;0.30;0.30;;;;;;;19.03;32.96;95699.97;29395;204;63009;-57
2024/04/09 00:53:11;;;;;;;0.30;0.30;;;;;;;19.01;32.74;95703.09;29394;235;64009;-57
2024/04/09 00:53:44;;;;;;;0.30;0.30;;;;;;;19.01;33.29;95705.03;29395;234;63009;-57
2024/04/09 00:54:17;;;;;;;0.40;0.40;;;;;;;19.00;32.95;95706.22;29395;270;63017;-56
2024/04/09 00:54:52;;;;;;;0.40;0.40;;;;;;;18.99;32.83;95702.66;29395;204;63024;-57
2024/04/09 00:55:27;;;;;;;0.40;0.40;;;;;;;18.98;32.78;95700.28;29395;214;63005;-56
2024/04/09 00:55:58;;;;;;;0.30;0.30;;;;;;;18.98;32.84;95708.53;29395;221;63009;-56
2024/04/09 00:56:30;;;;;;;0.40;0.40;;;;;;;18.97;32.92;95706.97;29395;202;63004;-67
2024/04/09 00:57:05;;;;;;;0.30;0.30;;;;;;;18.95;33.03;95710.06;29395;213;63009;-56
2024/04/09 00:57:41;;;;;;;0.40;0.40;;;;;;;18.95;33.11;95710.06;29395;293;63004;-56
2024/04/09 00:58:14;;;;;;;0.40;0.40;;;;;;;18.94;32.73;95704.97;29394;197;64013;-56
2024/04/09 00:58:47;;;;;;;0.35;0.35;;;;;;;18.94;33.22;95702.22;29395;226;63010;-57
2024/04/09 00:59:18;;;;;;;0.30;0.30;;;;;;;18.93;33.15;95701.41;29395;208;63014;-67
2024/04/09 00:59:52;;;;;;;0.40;0.40;;;;;;;18.93;33.50;95703.38;29395;252;63005;-56
2024/04/09 01:00:23;;;;;;;0.30;0.30;;;;;;;18.92;33.28;95697.09;29395;207;63025;-57
2024/04/09 01:00:56;;;;;;;0.40;0.40;;;;;;;18.93;33.34;95697.88;29395;225;63010;-56
2024/04/09 01:01:27;;;;;;;0.40;0.40;;;;;;;18.92;32.98;95693.53;29395;202;63009;-57
2024/04/09 01:02:00;;;;;;;0.40;0.40;;;;;;;18.92;33.14;95691.59;29395;208;63009;-58
2024/04/09 01:02:32;;;;;;;0.50;0.50;;;;;;;18.92;33.10;95693.53;29395;240;63028;-57
2024/04/09 01:03:05;;;;;;;0.40;0.40;;;;;;;18.91;33.48;95691.97;29395;211;63012;-57
2024/04/09 01:03:37;;;;;;;0.40;0.40;;;;;;;18.91;32.77;95700.19;29394;196;64013;-56
2024/04/09 01:04:09;;;;;;;0.30;0.30;;;;;;;18.90;33.35;95695.88;29395;203;63004;-56
2024/04/09 01:04:41;;;;;;;0.40;0.40;;;;;;;18.90;33.39;95696.66;29395;260;63009;-57
2024/04/09 01:05:12;;;;;;;0.40;0.40;;;;;;;18.89;33.30;95694.28;29395;207;63004;-57
2024/04/09 01:05:44;;;;;;;0.40;0.40;;;;;;;18.86;33.10;95695.81;29395;210;63009;-58
2024/04/09 01:06:15;;;;;;;0.30;0.30;;;;;;;18.89;32.79;95705.28;29395;203;63004;-55
2024/04/09 01:06:51;;;;;;;0.40;0.40;;;;;;;18.88;33.39;95698.19;29395;232;63009;-55
2024/04/09 01:07:23;;;;;;;0.40;0.40;;;;;;;18.87;33.38;95685.63;29395;232;63005;-55
2024/04/09 01:07:54;;;;;;;0.40;0.40;;;;;;;18.86;33.39;95689.53;29395;212;63009;-56
2024/04/09 01:08:26;;;;;;;0.40;0.40;;;;;;;18.85;33.47;95683.25;29395;199;63005;-57
2024/04/09 01:08:59;;;;;;;0.32;0.32;;;;;;;18.84;33.09;95686.37;29394;197;64013;-56
2024/04/09 01:09:30;;;;;;;0.40;0.40;;;;;;;18.83;33.37;95680.09;29395;199;63005;-55
2024/04/09 01:10:03;;;;;;;0.40;0.40;;;;;;;18.82;33.66;95683.22;29395;232;63015;-56
2024/04/09 01:10:35;;;;;;;0.40;0.40;;;;;;;18.82;33.48;95683.22;29395;253;63004;-56
2024/04/09 01:11:07;;;;;;;0.35;0.35;;;;;;;18.81;33.66;95682.41;29395;254;63009;-57
2024/04/09 01:11:38;;;;;;;0.40;0.40;;;;;;;18.80;33.36;95686.31;29395;249;63014;-56
2024/04/09 01:12:10;;;;;;;0.30;0.30;;;;;;;18.80;33.33;95696.53;29395;204;63009;-56
2024/04/09 01:12:41;;;;;;;0.30;0.30;;;;;;;18.79;33.28;95693.00;29395;216;63016;-57
2024/04/09 01:13:13;;;;;;;0.40;0.40;;;;;;;18.78;33.43;95693.38;29395;214;63023;-56
2024/04/09 01:13:44;;;;;;;0.35;0.35;;;;;;;18.76;33.55;95691.00;29395;206;63005;-56
2024/04/09 01:14:15;;;;;;;0.40;0.40;;;;;;;18.75;33.51;95690.19;29394;238;64014;-57
2024/04/09 01:14:46;;;;;;;0.40;0.40;;;;;;;18.74;33.83;95694.09;29395;202;63005;-56
2024/04/09 01:15:18;;;;;;;0.40;0.40;;;;;;;18.74;33.72;95690.56;29395;214;63009;-56
2024/04/09 01:15:50;;;;;;;0.40;0.40;;;;;;;18.73;33.79;95695.28;29395;253;63005;-56
2024/04/09 01:16:21;;;;;;;0.40;0.40;;;;;;;18.71;33.74;95689.34;29395;246;63009;-56
2024/04/09 01:16:52;;;;;;;0.30;0.30;;;;;;;18.71;33.67;95689.34;29395;203;63005;-56
2024/04/09 01:17:25;;;;;;;0.40;0.40;;;;;;;18.70;34.19;95693.31;29395;236;63026;-58
2024/04/09 01:17:56;;;;;;;0.30;0.30;;;;;;;18.70;33.86;95693.31;29395;224;63004;-58
2024/04/09 01:18:27;;;;;;;0.40;0.40;;;;;;;18.70;34.11;95693.31;29395;217;63009;-56
2024/04/09 01:18:59;;;;;;;0.30;0.30;;;;;;;18.70;33.89;95693.31;29395;234;63004;-57
2024/04/09 01:19:30;;;;;;;0.35;0.35;;;;;;;18.69;33.45;95697.22;29394;205;64013;-56
2024/04/09 01:20:06;;;;;;;0.35;0.35;;;;;;;18.69;33.76;95697.22;29395;199;63004;-56
2024/04/09 01:20:37;;;;;;;0.30;0.30;;;;;;;18.70;33.69;95690.56;29395;217;63016;-66
2024/04/09 01:21:12;;;;;;;0.40;0.40;;;;;;;18.70;33.79;95693.31;29395;244;63005;-57
2024/04/09 01:21:43;;;;;;;0.30;0.30;;;;;;;18.69;33.81;95686.22;29395;203;63009;-56
2024/04/09 01:22:15;;;;;;;0.40;0.40;;;;;;;18.70;33.58;95696.06;29395;246;63005;-55
2024/04/09 01:22:46;;;;;;;0.30;0.30;;;;;;;18.71;34.00;95683.09;29395;204;63009;-56
2024/04/09 01:23:17;;;;;;;0.30;0.30;;;;;;;18.71;33.60;95688.59;29395;222;63005;-55
2024/04/09 01:23:48;;;;;;;0.40;0.40;;;;;;;18.70;33.81;95682.31;29395;213;63009;-56
2024/04/09 01:24:20;;;;;;;0.40;0.40;;;;;;;18.71;33.55;95677.59;29395;220;63005;-56
2024/04/09 01:24:52;;;;;;;0.30;0.30;;;;;;;18.72;32.88;95674.47;29394;231;64013;-56
2024/04/09 01:25:23;;;;;;;0.40;0.40;;;;;;;18.73;32.78;95673.28;29395;223;63004;-56
2024/04/09 01:25:55;;;;;;;0.40;0.40;;;;;;;18.74;32.79;95672.13;29395;205;63009;-56
2024/04/09 01:26:26;;;;;;;0.30;0.30;;;;;;;18.75;32.75;95676.47;29394;212;64009;-56
2024/04/09 01:26:57;;;;;;;0.32;0.32;;;;;;;18.75;32.92;95676.47;29395;213;63009;-58
2024/04/09 01:27:29;;;;;;;0.30;0.30;;;;;;;18.75;32.93;95679.22;29395;220;63000;-57
2024/04/09 01:28:00;;;;;;;0.40;0.40;;;;;;;18.77;33.05;95686.28;29395;197;63008;-56
2024/04/09 01:28:31;;;;;;;0.40;0.40;;;;;;;18.75;33.08;95690.19;29395;209;63004;-57
2024/04/09 01:29:02;;;;;;;0.40;0.40;;;;;;;18.75;33.43;95684.69;29395;198;63016;-57
2024/04/09 01:29:34;;;;;;;0.40;0.40;;;;;;;18.74;33.23;95677.63;29395;212;63008;-56
2024/04/09 01:30:06;;;;;;;0.30;0.30;;;;;;;18.74;33.34;95677.63;29395;250;63009;-58
2024/04/09 01:30:38;;;;;;;0.30;0.30;;;;;;;18.72;33.13;95685.44;29395;203;63005;-57
2024/04/09 01:31:15;;;;;;;0.40;0.40;;;;;;;18.73;33.63;95689.78;29395;229;63009;-57
2024/04/09 01:31:46;;;;;;;0.40;0.40;;;;;;;18.71;33.86;95683.88;29394;256;64009;-57
2024/04/09 01:32:17;;;;;;;0.30;0.30;;;;;;;18.70;33.53;95682.31;29395;230;63009;-57
2024/04/09 01:32:49;;;;;;;0.30;0.30;;;;;;;18.69;33.27;95672.47;29395;230;63004;-68
2024/04/09 01:33:21;;;;;;;0.30;0.30;;;;;;;18.68;33.72;95684.63;29395;230;63009;-57
2024/04/09 01:33:52;;;;;;;0.30;0.30;;;;;;;18.68;33.24;95690.12;29395;224;63004;-58
2024/04/09 01:34:24;;;;;;;0.40;0.40;;;;;;;18.66;33.73;95680.69;29395;220;63011;-56
2024/04/09 01:34:55;;;;;;;0.40;0.40;;;;;;;18.65;33.69;95684.59;29395;215;63009;-57
2024/04/09 01:35:26;;;;;;;0.30;0.30;;;;;;;18.64;33.75;95689.28;29394;225;64013;-56
2024/04/09 01:35:57;;;;;;;0.30;0.30;;;;;;;18.64;33.78;95696.75;29395;204;63004;-58
2024/04/09 01:36:28;;;;;;;0.30;0.30;;;;;;;18.62;33.84;95697.13;29394;241;64014;-57
2024/04/09 01:37:00;;;;;;;0.30;0.30;;;;;;;18.61;33.79;95692.78;29395;249;63005;-56
2024/04/09 01:37:32;;;;;;;0.30;0.30;;;;;;;18.60;33.75;95696.69;29395;234;63009;-57
2024/04/09 01:38:04;;;;;;;0.30;0.30;;;;;;;18.58;33.79;95696.25;29395;234;63005;-58
2024/04/09 01:38:38;;;;;;;0.30;0.30;;;;;;;18.56;33.75;95698.56;29395;216;63009;-57
2024/04/09 01:39:10;;;;;;;0.30;0.30;;;;;;;18.55;33.50;95702.50;29395;252;63005;-56
2024/04/09 01:39:41;;;;;;;0.30;0.30;;;;;;;18.54;33.73;95694.63;29395;256;63009;-57
2024/04/09 01:40:12;;;;;;;0.30;0.30;;;;;;;18.52;33.94;95692.25;29395;206;63005;-57
2024/04/09 01:40:44;;;;;;;0.30;0.30;;;;;;;18.53;34.23;95695.78;29395;260;63009;-57
2024/04/09 01:41:17;;;;;;;0.40;0.40;;;;;;;18.52;33.73;95689.50;29395;218;63004;-56
2024/04/09 01:41:49;;;;;;;0.30;0.30;;;;;;;18.52;33.55;95686.75;29394;207;64013;-56
2024/04/09 01:42:20;;;;;;;0.35;0.35;;;;;;;18.52;33.47;95692.25;29394;215;64009;-58
2024/04/09 01:42:51;;;;;;;0.35;0.35;;;;;;;18.52;33.11;95692.25;29395;215;63008;-57
2024/04/09 01:43:22;;;;;;;0.30;0.30;;;;;;;18.51;33.25;95696.16;29395;232;63004;-56
2024/04/09 01:43:54;;;;;;;0.30;0.30;;;;;;;18.51;33.50;95698.09;29395;217;63009;-56
2024/04/09 01:44:26;;;;;;;0.40;0.40;;;;;;;18.50;33.54;95693.78;29395;239;63005;-56
2024/04/09 01:44:57;;;;;;;0.30;0.30;;;;;;;18.49;33.85;95690.25;29395;238;63009;-57
2024/04/09 01:45:29;;;;;;;0.40;0.40;;;;;;;18.48;33.75;95694.16;29395;238;63005;-57
2024/04/09 01:46:00;;;;;;;0.30;0.30;;;;;;;18.48;34.19;95688.66;29395;242;63009;-56
2024/04/09 01:46:32;;;;;;;0.40;0.40;;;;;;;18.48;34.13;95688.66;29395;202;63016;-56
2024/04/09 01:47:05;;;;;;;0.30;0.30;;;;;;;18.46;34.39;95690.97;29395;247;63009;-57
2024/04/09 01:47:37;;;;;;;0.30;0.30;;;;;;;18.45;34.33;95686.66;29394;207;64009;-57
2024/04/09 01:48:09;;;;;;;0.40;0.40;;;;;;;18.44;34.12;95685.06;29395;265;63009;-57
2024/04/09 01:48:42;;;;;;;0.35;0.35;;;;;;;18.42;33.99;95695.63;29395;208;63004;-57
2024/04/09 01:49:14;;;;;;;0.40;0.40;;;;;;;18.41;34.29;95696.78;29395;219;63027;-56
2024/04/09 01:49:46;;;;;;;0.30;0.30;;;;;;;18.40;34.31;95695.22;29395;224;63004;-56
2024/04/09 01:50:17;;;;;;;0.40;0.40;;;;;;;18.38;34.39;95692.03;29395;224;63009;-57
2024/04/09 01:50:48;;;;;;;0.30;0.30;;;;;;;18.36;34.30;95700.69;29395;220;63004;-58
2024/04/09 01:51:19;;;;;;;0.40;0.40;;;;;;;18.36;34.82;95691.66;29395;225;63009;-57
2024/04/09 01:51:51;;;;;;;0.40;0.40;;;;;;;18.34;34.69;95697.50;29394;229;64009;-57
2024/04/09 01:52:22;;;;;;;0.40;0.40;;;;;;;18.34;34.75;95703.00;29395;219;63017;-57
2024/04/09 01:52:53;;;;;;;0.40;0.40;;;;;;;18.32;35.21;95701.78;29394;210;64009;-56
2024/04/09 01:53:25;;;;;;;0.40;0.40;;;;;;;18.31;35.20;95702.94;29395;247;63009;-56
2024/04/09 01:53:56;;;;;;;0.40;0.40;;;;;;;18.30;35.21;95704.91;29395;203;63005;-57
2024/04/09 01:54:27;;;;;;;0.40;0.40;;;;;;;18.28;35.52;95704.47;29395;211;63009;-58
2024/04/09 01:54:58;;;;;;;0.40;0.40;;;;;;;18.28;35.39;95703.69;29395;212;63005;-57
2024/04/09 01:55:29;;;;;;;0.30;0.30;;;;;;;18.26;35.38;95695.81;29395;226;63009;-56
2024/04/09 01:56:01;;;;;;;0.30;0.30;;;;;;;18.25;35.51;95699.72;29395;228;63004;-57
2024/04/09 01:56:33;;;;;;;0.30;0.30;;;;;;;18.23;35.80;95696.56;29395;242;63009;-56
2024/04/09 01:57:05;;;;;;;0.37;0.37;;;;;;;18.23;35.20;95698.50;29395;233;63004;-56
2024/04/09 01:57:36;;;;;;;0.50;0.50;;;;;;;18.22;35.52;95694.19;29395;229;63009;-56
2024/04/09 01:58:09;;;;;;;0.40;0.40;;;;;;;18.21;35.70;95698.88;29394;240;64008;-56
2024/04/09 01:58:40;;;;;;;0.40;0.40;;;;;;;18.20;35.66;95702.78;29395;219;63008;-56
2024/04/09 01:59:11;;;;;;;0.40;0.40;;;;;;;18.20;35.31;95696.50;29395;220;63005;-56
2024/04/09 01:59:43;;;;;;;0.40;0.40;;;;;;;18.20;35.34;95696.50;29395;221;63009;-56
2024/04/09 02:00:21;;;;;;;0.40;0.40;;;;;;;18.20;35.18;95704.75;29395;219;63005;-56
2024/04/09 02:00:52;;;;;;;0.40;0.40;;;;;;;18.19;35.12;95701.22;29395;243;63009;-56
2024/04/09 02:01:24;;;;;;;0.40;0.40;;;;;;;18.20;35.18;95705.53;29395;205;63005;-58
2024/04/09 02:01:55;;;;;;;0.40;0.40;;;;;;;18.19;34.84;95700.41;29394;261;64013;-56
2024/04/09 02:02:26;;;;;;;0.37;0.37;;;;;;;18.20;34.92;95708.28;29395;375;63004;-56
2024/04/09 02:02:57;;;;;;;0.30;0.30;;;;;;;18.21;35.28;95703.59;29395;197;63009;-56
2024/04/09 02:03:29;;;;;;;0.30;0.30;;;;;;;18.21;34.71;95709.06;29395;226;63004;-57
2024/04/09 02:04:01;;;;;;;0.30;0.30;;;;;;;18.21;35.30;95701.63;29395;266;63009;-56
2024/04/09 02:04:34;;;;;;;0.40;0.40;;;;;;;18.22;34.86;95702.44;29395;312;63004;-57
2024/04/09 02:05:08;;;;;;;0.40;0.40;;;;;;;18.23;34.83;95701.25;29395;245;63009;-57
2024/04/09 02:05:39;;;;;;;0.40;0.40;;;;;;;18.24;34.45;95705.59;29395;210;63004;-56
2024/04/09 02:06:16;;;;;;;0.40;0.40;;;;;;;18.25;34.53;95709.91;29395;253;63008;-56
2024/04/09 02:06:49;;;;;;;0.40;0.40;;;;;;;18.26;34.49;95706.00;29395;269;63007;-56
2024/04/09 02:07:20;;;;;;;0.30;0.30;;;;;;;18.27;34.72;95704.84;29394;227;64013;-57
2024/04/09 02:07:52;;;;;;;0.40;0.40;;;;;;;18.27;34.02;95710.34;29395;260;63005;-56
2024/04/09 02:08:27;;;;;;;0.30;0.30;;;;;;;18.27;34.80;95705.66;29395;333;63009;-56
2024/04/09 02:08:58;;;;;;;0.35;0.35;;;;;;;18.28;34.43;95698.19;29395;196;63011;-57
2024/04/09 02:09:30;;;;;;;0.40;0.40;;;;;;;18.29;34.28;95705.28;29395;303;63022;-56
2024/04/09 02:10:01;;;;;;;0.30;0.30;;;;;;;18.30;34.64;95701.38;29395;202;63004;-58
2024/04/09 02:10:33;;;;;;;0.32;0.32;;;;;;;18.31;34.72;95703.75;29395;389;63009;-56
2024/04/09 02:11:05;;;;;;;0.40;0.40;;;;;;;18.32;34.48;95701.78;29395;202;63004;-56
2024/04/09 02:11:37;;;;;;;0.40;0.40;;;;;;;18.33;34.81;95701.41;29395;202;63009;-57
2024/04/09 02:12:08;;;;;;;0.40;0.40;;;;;;;18.33;34.50;95692.41;29394;208;64009;-56
2024/04/09 02:12:41;;;;;;;0.30;0.30;;;;;;;18.35;34.68;95709.28;29395;241;63016;-57
2024/04/09 02:13:12;;;;;;;0.30;0.30;;;;;;;18.36;34.18;95708.13;29395;210;63005;-56
2024/04/09 02:13:47;;;;;;;0.40;0.40;;;;;;;18.35;34.63;95704.59;29395;250;63009;-56
2024/04/09 02:14:18;;;;;;;0.40;0.40;;;;;;;18.35;34.25;95703.78;29395;203;63005;-55
2024/04/09 02:14:49;;;;;;;0.30;0.30;;;;;;;18.36;34.49;95706.16;29395;242;63009;-56
2024/04/09 02:15:21;;;;;;;0.40;0.40;;;;;;;18.36;34.58;95711.66;29395;333;63005;-56
2024/04/09 02:15:53;;;;;;;0.40;0.40;;;;;;;18.36;34.63;95705.38;29395;269;63014;-56
2024/04/09 02:16:24;;;;;;;0.40;0.40;;;;;;;18.36;34.64;95710.87;29395;284;63005;-56
2024/04/09 02:16:56;;;;;;;0.40;0.40;;;;;;;18.36;34.95;95716.38;29395;220;63009;-56
2024/04/09 02:17:30;;;;;;;0.40;0.40;;;;;;;18.36;34.70;95721.84;29394;280;64009;-56
2024/04/09 02:18:04;;;;;;;0.40;0.40;;;;;;;18.35;35.05;95720.28;29395;213;63009;-56
2024/04/09 02:18:38;;;;;;;0.30;0.30;;;;;;;18.35;34.62;95725.75;29395;225;63004;-56
2024/04/09 02:19:09;;;;;;;0.40;0.40;;;;;;;18.38;35.48;95735.97;29395;236;63009;-56
2024/04/09 02:19:41;;;;;;;0.30;0.30;;;;;;;18.40;35.11;95722.66;29395;204;63016;-56
2024/04/09 02:20:13;;;;;;;0.37;0.37;;;;;;;18.41;35.02;95719.56;29395;202;63008;-56
2024/04/09 02:20:44;;;;;;;0.32;0.32;;;;;;;18.45;34.93;95719.59;29395;205;63005;-56
2024/04/09 02:21:15;;;;;;;0.30;0.30;;;;;;;18.46;35.03;95723.94;29395;213;63009;-56
2024/04/09 02:21:48;;;;;;;0.40;0.40;;;;;;;18.48;34.86;95724.34;29395;207;63005;-56
2024/04/09 02:22:19;;;;;;;0.40;0.40;;;;;;;18.49;34.98;95725.94;29394;241;64013;-56
2024/04/09 02:22:51;;;;;;;0.30;0.30;;;;;;;18.49;34.92;95720.44;29395;235;63005;-56
2024/04/09 02:23:22;;;;;;;0.40;0.40;;;;;;;18.50;34.73;95724.78;29395;199;63009;-56
2024/04/09 02:23:53;;;;;;;0.40;0.40;;;;;;;18.49;35.00;95720.44;29395;213;63005;-56
2024/04/09 02:24:26;;;;;;;0.40;0.40;;;;;;;18.49;35.05;95720.44;29395;210;63009;-56
2024/04/09 02:24:57;;;;;;;0.40;0.40;;;;;;;18.49;35.00;95712.22;29395;273;63004;-56
2024/04/09 02:25:28;;;;;;;0.30;0.30;;;;;;;18.49;35.07;95714.97;29394;214;64013;-56
2024/04/09 02:26:00;;;;;;;0.40;0.40;;;;;;;18.50;35.13;95716.53;29395;214;63004;-56
2024/04/09 02:26:31;;;;;;;0.40;0.40;;;;;;;18.49;35.10;95709.47;29395;275;63009;-56
2024/04/09 02:27:04;;;;;;;0.35;0.35;;;;;;;18.50;35.07;95715.75;29395;246;63004;-56
2024/04/09 02:27:35;;;;;;;0.40;0.40;;;;;;;18.48;35.22;95713.38;29395;236;63008;-56
2024/04/09 02:28:08;;;;;;;0.40;0.40;;;;;;;18.48;35.15;95713.38;29395;212;63018;-56
2024/04/09 02:28:43;;;;;;;0.40;0.40;;;;;;;18.48;35.22;95705.13;29395;211;63009;-57
2024/04/09 02:29:14;;;;;;;0.40;0.40;;;;;;;18.48;35.21;95707.88;29395;205;63005;-66
2024/04/09 02:29:46;;;;;;;0.40;0.40;;;;;;;18.49;35.39;95714.97;29395;223;63009;-56
2024/04/09 02:30:17;;;;;;;0.30;0.30;;;;;;;18.49;35.00;95709.47;29395;250;63005;-57
2024/04/09 02:30:49;;;;;;;0.40;0.40;;;;;;;18.51;35.09;95709.87;29394;234;64013;-55
2024/04/09 02:31:20;;;;;;;0.30;0.30;;;;;;;18.51;35.24;95709.87;29395;216;63005;-57
2024/04/09 02:31:52;;;;;;;0.30;0.30;;;;;;;18.52;35.45;95708.72;29395;243;63009;-56
2024/04/09 02:32:23;;;;;;;0.40;0.40;;;;;;;18.52;35.72;95714.22;29395;218;63004;-56
2024/04/09 02:32:55;;;;;;;0.40;0.40;;;;;;;18.52;35.15;95716.97;29395;212;63009;-56
2024/04/09 02:33:26;;;;;;;0.30;0.30;;;;;;;18.54;35.81;95716.59;29395;202;63004;-56
2024/04/09 02:33:58;;;;;;;0.40;0.40;;;;;;;18.54;35.51;95717.37;29395;215;63008;-55